Airfield :
LOGIN :

Register | Disclaimer

   EN    FR    IT 

 










Legend :    VFR   Marginal VFR   IFR   Intensive IFR   Very Intensive IFR
Visi :
Ceiling :
>= 8 km
>= 3000ft
5 to 8 km
1000 to 3000 ft
1500m to 5 km
500 to 1000 ft
800 to 1500m
200 to 500 ft
< 800m
< 200 ft
Symbols :   Thunderstorms  Fog  Heavy snow  Heavy precipitations  Wind > 20 kt
SIGMETs :     Misc.  Thunderstorms  Icing  Turbulence  Mountain Waves  Volcanic Ashes






- Airport Elevation : 1106 ft


LFSO - Nancy / Ochey

CURRENT METAR :
  • 270700Z AUTO 19016KT 4300 -RA BR FEW008/// SCT021/// BKN032/// ///TCU 09/08 Q0997

EXPIRED METARs :
  • 270630Z AUTO 20016KT 4700 -RA BR BKN013/// OVC021/// ///CB 08/08 Q0997
  • 270600Z AUTO 20016KT 6000 RA OVC014/// ///CB 08/08 Q0998
  • 270530Z AUTO 20017KT 6000 RA SCT009/// BKN018/// OVC028/// ///CB 08/08 Q0998
  • 270500Z AUTO 21017KT 8000 -RA BKN008/// BKN026/// OVC035/// ///CB 08/08 Q0998
  • 270430Z AUTO 21016KT 8000 RA BKN010/// OVC015/// ///TCU 08/08 Q0999

Expired Forecast.



MET'MAP, your aeronautical weather chart ! - Copyright ORBIFLY December 2007 - Disclaimer

ORBIFLY MET'MAP TEAM :

Programming & Development : Alexandra Zaïnal
Concept & original design : Baudouin d'Aumeries
Assistance for programming : Marc-Olivier Méhu
Technical & hardware support : Manuel Goepfert

Contact : metmap@orbifly.com




SOURCES & CREDITS :

   NOAA